Time;durP1;ratioP1;P1;durP2;ratioP2;P2;SDS_P1;SDS_P2;PMS_P1;PMS_P2;Temp;Humidity;BMP_temperature;BMP_pressure;BME280_temperature;BME280_humidity;BME280_pressure;Samples;Min_cycle;Max_cycle;Signal;HPM_P1;HPM_P2
2021/12/25 00:01:07;;;;;;;45.50;12.20;;;;;;;7.84;100.00;99210.66;4968890;28;20098;-80
2021/12/25 00:03:35;;;;;;;34.88;11.43;;;;;;;7.85;100.00;99210.31;4953971;28;20047;-80
2021/12/25 00:06:03;;;;;;;30.35;12.23;;;;;;;7.84;100.00;99213.41;4940463;28;20066;-81
2021/12/25 00:08:33;;;;;;;32.20;13.27;;;;;;;7.83;100.00;99212.63;4973250;28;20049;-80
2021/12/25 00:11:04;;;;;;;32.30;12.25;;;;;;;7.84;100.00;99214.22;4972244;28;20121;-79
2021/12/25 00:13:31;;;;;;;36.63;10.27;;;;;;;7.85;100.00;99209.50;4969267;28;20051;-80
2021/12/25 00:15:58;;;;;;;32.63;11.40;;;;;;;7.87;100.00;99207.97;4964124;28;20050;-80
2021/12/25 00:18:25;;;;;;;28.25;9.40;;;;;;;7.89;100.00;99207.59;4937597;29;20059;-79
2021/12/25 00:20:52;;;;;;;37.72;9.30;;;;;;;7.87;100.00;99205.22;4956143;28;20090;-80
2021/12/25 00:23:21;;;;;;;28.10;8.13;;;;;;;7.83;100.00;99209.06;4940653;28;20050;-81
2021/12/25 00:25:55;;;;;;;34.25;9.68;;;;;;;7.82;100.00;99211.03;4975050;28;20487;-80
2021/12/25 00:36:01;;;;;;;45.75;11.18;;;;;;;7.78;100.00;99206.63;4988172;28;20039;-80
2021/12/25 00:38:28;;;;;;;36.30;10.02;;;;;;;7.77;100.00;99197.56;4955645;28;20146;-80
2021/12/25 00:40:54;;;;;;;24.83;7.90;;;;;;;7.78;100.00;99199.13;4973015;28;20130;-81
2021/12/25 00:43:21;;;;;;;29.45;8.90;;;;;;;7.79;100.00;99203.50;4972985;28;20050;-80
2021/12/25 00:45:48;;;;;;;34.15;7.72;;;;;;;7.82;100.00;99193.69;4973148;28;20039;-80
2021/12/25 00:48:15;;;;;;;37.67;9.75;;;;;;;7.81;100.00;99203.91;4955228;28;20039;-80
2021/12/25 00:50:42;;;;;;;39.80;8.60;;;;;;;7.82;100.00;99204.72;4971644;28;20047;-81
2021/12/25 00:53:09;;;;;;;31.05;9.23;;;;;;;7.82;100.00;99197.25;4971494;28;20050;-80
2021/12/25 00:55:35;;;;;;;26.95;10.30;;;;;;;7.85;100.00;99204.00;4972956;28;20463;-80
2021/12/25 00:58:02;;;;;;;32.80;11.07;;;;;;;7.86;100.00;99206.38;4972781;28;20469;-80
2021/12/25 01:00:29;;;;;;;37.50;10.70;;;;;;;7.87;100.00;99207.16;4972713;28;20054;-80
2021/12/25 01:02:56;;;;;;;34.17;11.05;;;;;;;7.88;100.00;99201.31;4971287;28;20039;-80
2021/12/25 01:05:23;;;;;;;37.85;10.88;;;;;;;7.90;100.00;99210.00;4972804;28;20053;-79
2021/12/25 01:07:50;;;;;;;35.25;9.98;;;;;;;7.91;100.00;99214.38;4972655;28;20141;-80
2021/12/25 01:10:19;;;;;;;30.13;8.82;;;;;;;7.92;100.00;99215.13;4954845;28;20053;-82
2021/12/25 01:15:23;;;;;;;34.78;5.80;;;;;;;7.94;100.00;99213.63;4972828;28;20281;-80
2021/12/25 01:25:50;;;;;;;19.25;5.35;;;;;;;8.19;100.00;99211.31;4952935;29;20059;-80
2021/12/25 01:31:14;;;;;;;14.00;3.72;;;;;;;8.28;100.00;99211.94;4972340;28;20043;-80
2021/12/25 01:41:57;;;;;;;13.65;3.80;;;;;;;8.37;100.00;99219.94;4972231;28;20047;-80
2021/12/25 01:49:40;;;;;;;14.15;3.70;;;;;;;8.37;100.00;99208.91;4972465;28;20060;-80
2021/12/25 01:52:08;;;;;;;24.42;3.47;;;;;;;8.36;100.00;99208.13;4972178;28;20038;-81
2021/12/25 01:54:34;;;;;;;17.58;3.65;;;;;;;8.38;100.00;99207.75;4954804;28;20410;-81
2021/12/25 01:57:02;;;;;;;15.85;3.85;;;;;;;8.38;100.00;99213.28;4972159;28;20053;-79
2021/12/25 01:59:29;;;;;;;21.48;3.58;;;;;;;8.38;100.00;99210.50;4972919;28;20502;-79
2021/12/25 02:01:55;;;;;;;14.20;3.40;;;;;;;8.37;100.00;99208.91;4974083;28;20045;-80
2021/12/25 02:04:23;;;;;;;23.20;4.30;;;;;;;8.37;100.00;99209.72;4958719;28;20059;-80
2021/12/25 02:06:50;;;;;;;17.92;4.35;;;;;;;8.37;100.00;99195.91;4974736;28;20039;-81
2021/12/25 02:09:17;;;;;;;12.80;3.55;;;;;;;8.39;100.00;99212.13;4958792;28;20105;-81
2021/12/25 02:11:44;;;;;;;32.47;4.78;;;;;;;8.39;100.00;99215.63;4958915;28;20070;-80
2021/12/25 02:14:11;;;;;;;22.38;4.90;;;;;;;8.42;100.00;99212.16;4976091;28;20047;-80
2021/12/25 02:16:54;;;;;;;27.05;4.68;;;;;;;8.42;100.00;99211.34;4974737;28;20058;-81
2021/12/25 02:19:36;;;;;;;26.98;4.20;;;;;;;8.45;100.00;99221.66;4942652;28;20050;-81
2021/12/25 02:22:03;;;;;;;29.83;3.17;;;;;;;8.44;100.00;99214.56;4975951;28;20082;-80
2021/12/25 02:24:30;;;;;;;16.95;5.45;;;;;;;8.46;100.00;99220.50;4958150;28;20042;-81
2021/12/25 02:26:57;;;;;;;26.20;3.97;;;;;;;8.46;100.00;99217.75;4978232;28;20038;-81
2021/12/25 02:29:24;;;;;;;20.52;3.58;;;;;;;8.44;100.00;99225.59;4957981;28;20415;-81
2021/12/25 02:31:51;;;;;;;22.25;5.80;;;;;;;8.43;100.00;99218.47;4974467;28;20057;-81
2021/12/25 02:34:18;;;;;;;23.08;3.60;;;;;;;8.43;100.00;99213.75;4974186;28;20050;-81
2021/12/25 02:36:45;;;;;;;11.73;2.67;;;;;;;8.45;100.00;99216.94;4941964;28;20471;-81
2021/12/25 02:39:12;;;;;;;22.10;3.97;;;;;;;8.46;100.00;99223.25;4975403;28;20035;-81
2021/12/25 02:41:38;;;;;;;13.27;3.13;;;;;;;8.44;100.00;99220.88;4975517;28;20047;-80
2021/12/25 02:44:06;;;;;;;11.90;3.60;;;;;;;8.46;100.00;99217.75;4974866;28;20078;-80
2021/12/25 02:46:34;;;;;;;15.35;3.53;;;;;;;8.46;100.00;99226.00;4970570;28;20086;-81
2021/12/25 02:49:01;;;;;;;20.08;3.05;;;;;;;8.47;100.00;99224.88;4971161;28;20049;-80
2021/12/25 02:51:28;;;;;;;17.73;3.33;;;;;;;8.47;100.00;99230.38;4975317;28;20805;-80
2021/12/25 02:53:55;;;;;;;20.25;2.78;;;;;;;8.46;100.00;99231.53;4957833;28;20396;-80
2021/12/25 02:56:21;;;;;;;14.55;2.45;;;;;;;8.45;100.00;99239.00;4973975;28;20390;-80
2021/12/25 02:58:48;;;;;;;14.52;2.63;;;;;;;8.44;100.00;99225.59;4957593;28;20042;-80
2021/12/25 03:01:19;;;;;;;15.90;2.58;;;;;;;8.44;100.00;99231.09;4965533;28;20050;-81
2021/12/25 03:03:46;;;;;;;13.75;2.72;;;;;;;8.45;100.00;99241.75;4954219;29;20175;-80
2021/12/25 03:06:13;;;;;;;14.38;2.30;;;;;;;8.46;100.00;99234.28;4954251;29;20465;-80
2021/12/25 03:08:41;;;;;;;24.27;4.10;;;;;;;8.48;100.00;99231.94;4954304;29;20406;-81
2021/12/25 03:11:10;;;;;;;10.20;2.65;;;;;;;8.49;100.00;99222.53;4971035;28;20806;-80
2021/12/25 03:13:44;;;;;;;12.90;1.95;;;;;;;8.49;100.00;99223.31;4974815;28;20538;-80
2021/12/25 03:16:13;;;;;;;29.75;5.55;;;;;;;8.49;100.00;99233.56;4973644;28;20165;-80
2021/12/25 03:18:46;;;;;;;17.05;3.17;;;;;;;8.49;100.00;99225.28;4957523;28;20478;-80
2021/12/25 03:21:16;;;;;;;16.33;3.72;;;;;;;8.50;100.00;99233.19;4974805;28;20043;-82
2021/12/25 03:23:43;;;;;;;29.17;5.32;;;;;;;8.50;100.00;99235.94;4974642;28;20086;-80
2021/12/25 03:26:10;;;;;;;24.08;3.92;;;;;;;8.50;100.00;99222.16;4957686;28;20034;-80
2021/12/25 03:28:41;;;;;;;16.60;3.70;;;;;;;8.51;100.00;99236.75;4957181;28;20034;-80
2021/12/25 03:31:15;;;;;;;19.67;3.67;;;;;;;8.48;100.00;99229.19;4970328;28;20045;-80
2021/12/25 03:33:45;;;;;;;15.10;3.63;;;;;;;8.46;100.00;99229.56;4954591;28;20392;-80
2021/12/25 03:36:12;;;;;;;11.95;2.00;;;;;;;8.48;100.00;99223.69;4955314;29;20418;-80
2021/12/25 03:38:39;;;;;;;16.23;2.50;;;;;;;8.48;100.00;99226.44;4938185;29;20447;-81
2021/12/25 03:41:07;;;;;;;15.15;3.83;;;;;;;8.48;100.00;99227.25;4955062;29;20086;-80
2021/12/25 03:43:38;;;;;;;18.17;3.30;;;;;;;8.48;100.00;99231.94;4946024;28;20073;-80
2021/12/25 03:46:10;;;;;;;12.20;2.33;;;;;;;8.46;100.00;99217.75;4972337;28;20526;-80
2021/12/25 03:59:16;;;;;;;15.88;2.40;;;;;;;8.41;100.00;99226.31;4974093;28;20038;-80
2021/12/25 04:01:58;;;;;;;18.33;2.65;;;;;;;8.41;100.00;99237.34;4972182;28;20058;-80
2021/12/25 04:04:33;;;;;;;13.63;2.63;;;;;;;8.40;100.00;99220.00;4973930;28;20057;-80
2021/12/25 04:09:33;;;;;;;11.43;1.95;;;;;;;8.39;100.00;99228.66;4973879;28;20076;-80
2021/12/25 04:12:05;;;;;;;7.30;2.08;;;;;;;8.40;100.00;99230.22;4972723;28;20129;-80
2021/12/25 04:14:32;;;;;;;9.43;1.98;;;;;;;8.39;100.00;99234.94;4973951;28;20039;-80
2021/12/25 04:16:59;;;;;;;10.45;2.80;;;;;;;8.40;100.00;99235.75;4971028;28;20399;-80
2021/12/25 04:19:26;;;;;;;12.70;2.35;;;;;;;8.38;100.00;99241.66;4972117;28;20043;-80
2021/12/25 04:21:58;;;;;;;19.02;4.57;;;;;;;8.39;100.00;99239.69;4973419;28;20045;-80
2021/12/25 04:24:28;;;;;;;22.30;2.92;;;;;;;8.37;100.00;99230.97;4972566;28;20047;-80
2021/12/25 04:26:55;;;;;;;14.80;2.70;;;;;;;8.37;100.00;99236.47;4966875;28;20058;-80
2021/12/25 05:04:17;;;;;;;8.32;1.58;;;;;;;8.34;100.00;99217.94;5026997;28;20053;-81
2021/12/25 05:06:44;;;;;;;11.30;2.13;;;;;;;8.34;100.00;99218.72;5026934;28;20056;-80
2021/12/25 05:09:11;;;;;;;10.50;1.88;;;;;;;8.34;100.00;99217.94;5040741;28;20041;-80
2021/12/25 05:11:37;;;;;;;7.55;1.70;;;;;;;8.34;99.77;99210.44;5046914;28;20469;-81
2021/12/25 05:14:04;;;;;;;11.98;2.08;;;;;;;8.35;99.92;99211.25;5047759;28;20041;-80
2021/12/25 05:16:31;;;;;;;11.38;2.30;;;;;;;8.34;99.78;99210.44;5046520;28;20033;-80
2021/12/25 05:18:58;;;;;;;13.68;2.83;;;;;;;8.35;99.85;99217.56;5046545;28;20038;-81
2021/12/25 05:21:25;;;;;;;12.90;2.17;;;;;;;8.34;99.82;99209.66;5047922;28;20444;-81
2021/12/25 05:23:52;;;;;;;11.45;3.22;;;;;;;8.34;99.66;99209.66;5046628;28;20047;-81
2021/12/25 05:26:18;;;;;;;7.43;1.95;;;;;;;8.35;99.93;99212.03;5052711;28;20047;-81
2021/12/25 05:28:56;;;;;;;10.32;2.92;;;;;;;8.35;99.85;99205.72;5067621;28;20143;-80
2021/12/25 05:31:24;;;;;;;10.32;1.83;;;;;;;8.36;99.69;99210.09;5066042;28;20131;-81
2021/12/25 05:33:51;;;;;;;16.58;2.45;;;;;;;8.37;99.46;99206.94;5066338;28;20075;-81
2021/12/25 05:36:17;;;;;;;15.98;2.15;;;;;;;8.38;99.77;99207.75;5067495;28;20044;-81
2021/12/25 05:38:45;;;;;;;10.07;3.83;;;;;;;8.37;99.42;99209.72;5066238;28;20041;-80
2021/12/25 05:41:12;;;;;;;15.23;3.25;;;;;;;8.38;99.63;99205.78;5057840;28;20049;-80
2021/12/25 05:43:39;;;;;;;15.13;3.55;;;;;;;8.40;99.36;99208.16;5039239;28;20062;-81
2021/12/25 05:46:06;;;;;;;11.00;2.00;;;;;;;8.39;99.49;99212.88;5045939;28;20045;-81
2021/12/25 05:48:35;;;;;;;12.52;2.67;;;;;;;8.40;99.20;99220.00;5047313;28;20120;-81
2021/12/25 05:51:05;;;;;;;8.60;1.80;;;;;;;8.40;99.23;99219.19;5046023;28;20144;-81
2021/12/25 05:53:32;;;;;;;7.32;2.05;;;;;;;8.40;99.11;99216.44;5047089;28;20052;-80
2021/12/25 05:55:59;;;;;;;9.60;2.08;;;;;;;8.38;98.55;99221.53;5036663;28;20037;-81
2021/12/25 05:58:26;;;;;;;7.18;1.85;;;;;;;8.37;98.54;99214.41;5033848;28;20038;-81
2021/12/25 06:00:52;;;;;;;14.80;3.90;;;;;;;8.38;98.94;99210.50;5025660;28;20038;-81
2021/12/25 06:03:20;;;;;;;7.80;2.28;;;;;;;8.37;98.44;99214.41;5032697;28;20094;-81
2021/12/25 06:05:47;;;;;;;6.32;1.55;;;;;;;8.35;98.76;99211.25;4999612;28;20046;-81
2021/12/25 06:08:14;;;;;;;19.52;2.42;;;;;;;8.34;98.31;99212.41;5032548;28;20049;-81
2021/12/25 06:10:42;;;;;;;9.23;3.00;;;;;;;8.33;98.26;99208.88;5033656;28;20037;-81
2021/12/25 06:13:16;;;;;;;12.32;1.77;;;;;;;8.33;98.47;99197.84;5032209;28;20490;-81
2021/12/25 06:15:43;;;;;;;6.00;1.33;;;;;;;8.32;98.24;99200.94;5031669;28;20047;-81
2021/12/25 06:18:11;;;;;;;7.30;1.30;;;;;;;8.32;98.13;99200.94;5032315;28;20116;-81
2021/12/25 06:20:39;;;;;;;9.52;2.42;;;;;;;8.29;97.53;99196.16;5032130;28;20039;-80
2021/12/25 06:23:06;;;;;;;10.65;1.55;;;;;;;8.28;97.88;99200.91;5033474;28;20033;-80
2021/12/25 06:25:33;;;;;;;8.73;1.60;;;;;;;8.28;97.62;99192.63;5031785;28;20045;-80
2021/12/25 06:28:00;;;;;;;5.35;1.70;;;;;;;8.27;97.65;99187.47;5033604;28;20072;-81
2021/12/25 06:30:26;;;;;;;6.88;2.20;;;;;;;8.24;97.34;99191.72;5031865;28;20055;-81
2021/12/25 06:32:53;;;;;;;9.35;1.80;;;;;;;8.21;97.46;99186.13;5030760;28;20054;-81
2021/12/25 06:35:20;;;;;;;10.40;2.70;;;;;;;8.20;97.10;99190.06;5033302;28;20041;-81
2021/12/25 06:37:47;;;;;;;8.63;2.22;;;;;;;8.19;97.11;99191.22;5015475;28;20477;-81
2021/12/25 06:40:18;;;;;;;7.90;1.58;;;;;;;8.20;97.07;99181.81;5032007;28;20116;-81
2021/12/25 06:42:46;;;;;;;12.65;1.60;;;;;;;8.17;96.76;99186.09;5032780;28;20034;-81
2021/12/25 06:45:13;;;;;;;6.65;1.58;;;;;;;8.17;96.83;99188.06;5031237;28;20132;-81
2021/12/25 06:47:40;;;;;;;10.48;2.00;;;;;;;8.17;97.05;99188.84;5014798;28;20042;-81
2021/12/25 06:50:09;;;;;;;6.57;1.98;;;;;;;8.17;96.93;99177.81;5026613;28;20135;-80
2021/12/25 06:52:39;;;;;;;8.38;1.77;;;;;;;8.19;96.90;99189.28;5013291;28;20131;-80
2021/12/25 06:55:06;;;;;;;8.77;2.70;;;;;;;8.21;97.03;99194.41;5012823;28;20045;-80
2021/12/25 06:57:39;;;;;;;7.85;2.53;;;;;;;8.19;96.66;99194.78;5011777;28;20207;-80
2021/12/25 07:00:07;;;;;;;8.07;1.63;;;;;;;8.21;96.68;99188.91;5011551;28;20133;-80
2021/12/25 07:02:33;;;;;;;15.35;2.67;;;;;;;8.19;96.68;99200.31;5011463;28;20136;-80
2021/12/25 07:05:00;;;;;;;14.98;2.25;;;;;;;8.18;96.47;99201.44;5011469;28;20034;-80
2021/12/25 07:07:27;;;;;;;13.57;2.78;;;;;;;8.16;96.47;99192.75;4998652;28;20084;-81
2021/12/25 07:09:54;;;;;;;5.78;1.83;;;;;;;8.18;96.41;99189.66;5011511;28;20050;-81
2021/12/25 07:12:23;;;;;;;17.10;2.40;;;;;;;8.18;96.49;99192.41;5011326;28;20044;-81
2021/12/25 07:14:51;;;;;;;21.83;3.05;;;;;;;8.17;96.40;99204.59;5011427;28;20038;-81
2021/12/25 07:17:18;;;;;;;7.32;2.33;;;;;;;8.17;95.93;99194.38;5012824;28;20042;-81
2021/12/25 07:19:45;;;;;;;10.77;2.60;;;;;;;8.16;96.28;99186.44;5012796;28;20046;-81
2021/12/25 07:22:13;;;;;;;12.20;2.20;;;;;;;8.16;96.33;99184.50;5012529;28;20470;-80
2021/12/25 07:24:39;;;;;;;15.80;3.78;;;;;;;8.16;96.11;99190.00;5012927;28;20042;-81
2021/12/25 07:27:06;;;;;;;8.93;1.77;;;;;;;8.14;96.20;99183.25;5036478;28;20048;-81
2021/12/25 07:29:33;;;;;;;9.65;1.75;;;;;;;8.14;96.33;99183.25;5051821;28;20491;-81
2021/12/25 07:32:00;;;;;;;18.20;4.00;;;;;;;8.13;96.16;99181.69;5052178;28;20047;-80
2021/12/25 07:34:26;;;;;;;4.97;1.60;;;;;;;8.12;96.53;99174.56;5052311;28;20492;-81
2021/12/25 07:36:53;;;;;;;17.35;3.95;;;;;;;8.08;96.24;99184.72;5051934;28;20091;-81
2021/12/25 07:39:20;;;;;;;7.93;1.45;;;;;;;8.06;96.41;99178.78;5050602;28;20045;-81
2021/12/25 07:41:46;;;;;;;7.43;1.95;;;;;;;8.06;96.49;99181.53;5038055;28;20038;-81
2021/12/25 07:44:13;;;;;;;12.63;2.17;;;;;;;8.05;96.65;99185.47;5013241;28;20064;-81
2021/12/25 07:46:43;;;;;;;14.73;1.80;;;;;;;8.05;96.91;99179.97;5031718;28;20138;-81
2021/12/25 07:49:16;;;;;;;7.25;2.85;;;;;;;8.04;96.92;99167.34;5030425;28;20426;-81
2021/12/25 07:51:43;;;;;;;11.32;3.30;;;;;;;7.99;96.76;99171.97;5031331;28;20424;-81
2021/12/25 07:54:10;;;;;;;12.00;3.03;;;;;;;7.97;96.90;99173.50;5030305;28;20042;-81
2021/12/25 07:56:38;;;;;;;13.30;1.50;;;;;;;7.95;96.96;99179.41;5030589;28;20042;-81
2021/12/25 07:59:06;;;;;;;10.50;1.70;;;;;;;7.93;96.86;99173.47;5017945;28;20029;-81
2021/12/25 08:01:35;;;;;;;8.40;1.60;;;;;;;7.93;96.75;99175.41;5011773;28;20034;-81
2021/12/25 08:04:04;;;;;;;10.02;2.55;;;;;;;7.93;96.80;99186.44;5010687;28;20422;-81
2021/12/25 08:06:31;;;;;;;11.40;2.70;;;;;;;7.92;96.74;99169.09;5011613;28;20045;-81
2021/12/25 08:09:00;;;;;;;8.10;1.45;;;;;;;7.93;96.79;99173.47;5010629;28;20048;-81
2021/12/25 08:11:28;;;;;;;22.77;4.10;;;;;;;7.95;96.78;99173.09;5010468;28;20038;-81
2021/12/25 08:13:54;;;;;;;11.38;2.70;;;;;;;7.93;97.11;99167.94;4993967;28;20401;-81
2021/12/25 08:16:21;;;;;;;18.75;4.03;;;;;;;7.94;97.18;99166.00;5012077;28;20419;-81
2021/12/25 08:18:49;;;;;;;15.23;2.70;;;;;;;7.91;97.61;99178.53;5011508;28;20038;-81
2021/12/25 08:21:16;;;;;;;11.18;2.25;;;;;;;7.89;97.47;99180.03;5011712;28;20034;-81
2021/12/25 08:23:44;;;;;;;6.88;2.05;;;;;;;7.85;97.76;99179.19;5010164;28;20041;-81
2021/12/25 08:26:15;;;;;;;12.95;2.92;;;;;;;7.83;98.04;99185.09;5022680;28;20047;-80
2021/12/25 08:28:42;;;;;;;13.52;2.15;;;;;;;7.81;98.43;99189.38;5033422;28;20051;-81
2021/12/25 08:31:08;;;;;;;11.60;2.20;;;;;;;7.79;98.45;99186.97;5033568;28;20388;-81
2021/12/25 08:33:35;;;;;;;6.72;1.60;;;;;;;7.77;98.55;99189.28;5016002;28;20048;-81
2021/12/25 08:36:03;;;;;;;12.77;2.25;;;;;;;7.75;98.45;99169.56;5010094;28;20056;-81
2021/12/25 08:38:29;;;;;;;13.45;2.35;;;;;;;7.74;98.70;99184.50;5010147;28;20042;-81
2021/12/25 08:40:56;;;;;;;13.85;2.80;;;;;;;7.74;98.85;99183.69;5009975;28;20044;-81
2021/12/25 08:43:32;;;;;;;15.05;4.63;;;;;;;7.71;99.12;99189.94;5010765;28;20656;-82
2021/12/25 08:46:14;;;;;;;11.50;2.30;;;;;;;7.71;99.02;99187.97;5011066;28;20046;-81
2021/12/25 08:48:41;;;;;;;15.07;3.30;;;;;;;7.69;98.94;99190.31;5010960;28;20073;-81
2021/12/25 08:51:09;;;;;;;12.68;3.35;;;;;;;7.68;99.34;99180.44;5030804;28;20041;-80
2021/12/25 08:53:37;;;;;;;13.68;3.17;;;;;;;7.66;99.57;99185.53;5030956;28;20045;-80
2021/12/25 08:56:04;;;;;;;17.70;3.40;;;;;;;7.67;99.48;99178.88;5029632;28;20048;-80
2021/12/25 08:58:31;;;;;;;17.38;3.88;;;;;;;7.68;99.69;99177.69;5030478;28;20044;-81
2021/12/25 09:01:01;;;;;;;25.52;4.35;;;;;;;7.68;99.65;99187.91;5030545;28;20045;-81
2021/12/25 09:03:30;;;;;;;30.00;3.97;;;;;;;7.68;99.46;99185.94;5029959;28;20108;-81
2021/12/25 09:06:01;;;;;;;15.68;3.35;;;;;;;7.67;99.78;99176.13;5027146;28;20045;-80
2021/12/25 09:08:28;;;;;;;19.00;3.50;;;;;;;7.67;100.00;99186.31;5010983;28;20053;-80
2021/12/25 09:10:55;;;;;;;18.67;4.25;;;;;;;7.67;100.00;99181.63;5010907;28;21030;-82
2021/12/25 09:13:22;;;;;;;16.25;2.88;;;;;;;7.67;100.00;99198.16;5010875;28;20037;-81
2021/12/25 09:15:50;;;;;;;14.63;2.95;;;;;;;7.64;100.00;99198.88;5009817;28;20030;-80
2021/12/25 09:18:16;;;;;;;15.23;3.00;;;;;;;7.62;100.00;99209.47;5010899;28;20482;-81
2021/12/25 09:20:43;;;;;;;12.30;2.97;;;;;;;7.60;100.00;99194.47;5009778;28;20038;-81
2021/12/25 09:23:10;;;;;;;16.17;3.10;;;;;;;7.57;100.00;99193.19;5010058;28;20071;-81
2021/12/25 09:25:37;;;;;;;11.70;2.20;;;;;;;7.57;100.00;99193.19;5011425;28;20038;-80
2021/12/25 09:28:04;;;;;;;14.85;3.70;;;;;;;7.54;100.00;99188.44;5049623;28;20029;-80
2021/12/25 09:30:30;;;;;;;17.90;4.00;;;;;;;7.56;100.00;99202.63;5051527;28;20547;-80
2021/12/25 09:32:57;;;;;;;14.63;4.13;;;;;;;7.54;100.00;99202.22;5053051;28;20064;-79
2021/12/25 09:35:24;;;;;;;17.52;3.90;;;;;;;7.59;100.00;99203.88;5053279;28;20420;-80
2021/12/25 09:37:51;;;;;;;13.27;3.35;;;;;;;7.56;100.00;99210.09;5053325;28;20037;-81
2021/12/25 09:40:18;;;;;;;18.13;3.92;;;;;;;7.58;100.00;99210.53;5040590;28;20109;-80
2021/12/25 09:42:45;;;;;;;18.15;3.70;;;;;;;7.58;100.00;99200.31;5052429;28;20110;-80
2021/12/25 09:45:12;;;;;;;18.52;3.85;;;;;;;7.59;100.00;99199.16;5052549;28;20053;-80
2021/12/25 09:47:42;;;;;;;23.67;3.08;;;;;;;7.58;100.00;99200.31;5052812;28;20049;-81
2021/12/25 09:50:10;;;;;;;12.85;3.35;;;;;;;7.60;100.00;99197.22;5052618;28;20051;-81
2021/12/25 09:52:38;;;;;;;14.48;3.55;;;;;;;7.60;100.00;99184.22;5052820;28;20036;-81
2021/12/25 09:55:05;;;;;;;13.45;3.42;;;;;;;7.60;100.00;99197.97;5052573;28;20247;-81
2021/12/25 09:57:34;;;;;;;15.90;4.25;;;;;;;7.59;99.92;99185.41;5027279;28;20485;-81
2021/12/25 10:00:10;;;;;;;14.82;2.75;;;;;;;7.58;99.76;99189.28;5032590;28;20065;-81
2021/12/25 10:02:47;;;;;;;11.90;2.40;;;;;;;7.57;99.99;99190.44;5015762;28;20136;-81
2021/12/25 10:05:27;;;;;;;13.65;2.65;;;;;;;7.57;100.00;99187.69;5023133;28;20039;-80
2021/12/25 10:08:01;;;;;;;12.25;2.40;;;;;;;7.57;100.00;99184.94;5032445;28;20041;-80
2021/12/25 10:10:37;;;;;;;16.80;3.00;;;;;;;7.55;100.00;99190.00;5032344;28;20457;-81
2021/12/25 10:13:03;;;;;;;24.80;3.47;;;;;;;7.58;100.00;99172.78;5033669;28;20033;-81
2021/12/25 10:15:30;;;;;;;11.75;2.72;;;;;;;7.57;100.00;99181.41;5015951;28;20483;-81
2021/12/25 10:17:59;;;;;;;14.90;3.03;;;;;;;7.57;100.00;99186.91;5012812;28;20052;-81
2021/12/25 10:20:32;;;;;;;21.58;3.75;;;;;;;7.58;99.75;99188.50;5014056;28;20137;-80
2021/12/25 10:23:11;;;;;;;20.75;4.63;;;;;;;7.59;99.50;99185.41;5012797;28;20130;-81
2021/12/25 10:25:45;;;;;;;8.18;2.78;;;;;;;7.58;99.54;99183.78;5013448;28;20060;-81
2021/12/25 10:28:16;;;;;;;17.42;3.80;;;;;;;7.59;99.39;99190.91;5035285;28;20075;-80
2021/12/25 10:31:04;;;;;;;12.02;3.35;;;;;;;7.60;99.75;99200.75;5049862;28;20057;-81
2021/12/25 10:33:44;;;;;;;14.55;3.20;;;;;;;7.59;99.68;99207.44;5012605;28;20161;-81
2021/12/25 10:36:25;;;;;;;12.27;2.22;;;;;;;7.59;99.41;99207.44;5012375;28;20042;-81
2021/12/25 10:39:05;;;;;;;12.25;2.70;;;;;;;7.60;99.23;99202.72;5012476;28;20050;-82
2021/12/25 10:41:35;;;;;;;5.63;2.33;;;;;;;7.60;98.83;99191.69;5013281;28;20033;-81
2021/12/25 10:44:21;;;;;;;12.85;2.35;;;;;;;7.62;98.90;99200.38;5012980;28;20058;-82
2021/12/25 10:47:01;;;;;;;17.38;3.15;;;;;;;7.63;99.00;99199.22;5013266;28;20044;-81
2021/12/25 10:49:33;;;;;;;14.13;3.47;;;;;;;7.64;99.03;99206.31;5027151;28;20034;-81
2021/12/25 10:52:26;;;;;;;11.77;2.58;;;;;;;7.61;98.84;99207.84;5031983;28;20041;-81
2021/12/25 10:54:59;;;;;;;7.45;2.78;;;;;;;7.61;98.77;99220.81;5032230;28;20107;-82
2021/12/25 10:57:31;;;;;;;16.65;3.65;;;;;;;7.60;98.70;99200.75;5031568;28;20124;-81
2021/12/25 10:59:58;;;;;;;19.37;3.03;;;;;;;7.59;98.77;99198.34;5032694;28;20045;-81
2021/12/25 11:02:47;;;;;;;24.27;2.90;;;;;;;7.56;99.16;99199.09;5031297;28;20072;-82
2021/12/25 11:05:23;;;;;;;22.48;1.98;;;;;;;7.55;99.25;99209.28;5032111;28;20068;-81
2021/12/25 11:08:15;;;;;;;8.95;2.80;;;;;;;7.53;99.13;99194.28;5032093;28;20043;-81
2021/12/25 11:10:45;;;;;;;15.85;3.33;;;;;;;7.53;99.37;99186.03;5020362;28;20045;-81
2021/12/25 11:13:23;;;;;;;15.82;2.92;;;;;;;7.53;99.22;99181.31;5014614;28;20400;-81
2021/12/25 11:15:56;;;;;;;11.93;2.72;;;;;;;7.54;99.41;99182.94;5032495;28;20051;-80
2021/12/25 11:18:23;;;;;;;16.25;3.17;;;;;;;7.55;99.23;99176.25;5032861;28;20042;-80
2021/12/25 11:20:50;;;;;;;13.95;3.03;;;;;;;7.55;99.37;99175.44;5032464;28;20125;-80
2021/12/25 11:23:17;;;;;;;17.25;4.03;;;;;;;7.54;99.20;99182.13;5000443;28;20148;-81
2021/12/25 11:25:44;;;;;;;15.50;3.53;;;;;;;7.54;99.55;99193.16;4997649;28;20042;-80
2021/12/25 11:28:18;;;;;;;14.15;2.78;;;;;;;7.53;99.62;99186.84;5051224;28;20503;-80
2021/12/25 11:30:47;;;;;;;21.80;3.15;;;;;;;7.55;99.97;99190.00;5034511;28;20433;-80
2021/12/25 11:33:14;;;;;;;16.15;3.35;;;;;;;7.55;100.00;99173.50;5052300;28;20041;-80
2021/12/25 11:35:41;;;;;;;23.13;3.33;;;;;;;7.57;100.00;99184.16;5050764;28;20128;-80
2021/12/25 11:38:10;;;;;;;27.20;5.60;;;;;;;7.57;100.00;99181.41;5051940;28;20044;-80
2021/12/25 11:40:45;;;;;;;20.25;3.45;;;;;;;7.56;99.86;99169.59;5035659;28;20048;-80
2021/12/25 11:43:12;;;;;;;18.45;2.85;;;;;;;7.56;100.00;99175.09;5050695;28;20148;-80
2021/12/25 11:45:50;;;;;;;21.20;3.88;;;;;;;7.57;100.00;99179.44;5051739;28;20056;-80
2021/12/25 11:48:21;;;;;;;22.70;4.88;;;;;;;7.57;100.00;99162.91;5052001;28;20427;-80
2021/12/25 11:50:51;;;;;;;21.42;4.28;;;;;;;7.59;99.95;99168.88;5034245;28;20059;-79
2021/12/25 11:54:04;;;;;;;13.35;2.95;;;;;;;7.60;100.00;99153.91;5049930;28;20056;-80
2021/12/25 11:56:41;;;;;;;;;;;;;;;7.59;100.00;99163.34;5034508;28;20557;-80
2021/12/25 11:59:12;;;;;;;16.02;3.83;;;;;;;7.60;100.00;99159.44;5012256;28;19971;-80
2021/12/25 12:01:48;;;;;;;16.80;3.22;;;;;;;7.61;100.00;99169.28;5010376;28;20445;-79
2021/12/25 12:04:24;;;;;;;12.43;4.57;;;;;;;7.62;100.00;99150.81;5012015;28;20072;-79
2021/12/25 12:06:56;;;;;;;21.90;3.35;;;;;;;7.62;100.00;99157.13;5010480;28;20046;-80
2021/12/25 12:09:50;;;;;;;16.77;3.42;;;;;;;7.62;100.00;99157.13;5011064;28;20042;-80
2021/12/25 12:12:18;;;;;;;19.48;6.60;;;;;;;7.62;100.00;99151.63;4994278;28;20072;-79
2021/12/25 12:15:14;;;;;;;21.70;5.90;;;;;;;7.61;100.00;99150.00;5025027;28;20054;-79
2021/12/25 12:17:43;;;;;;;7.10;2.00;;;;;;;7.61;100.00;99136.25;5011661;28;20038;-80
2021/12/25 12:20:16;;;;;;;17.50;3.85;;;;;;;7.62;100.00;99146.13;5010314;28;20548;-79
2021/12/25 12:22:54;;;;;;;17.40;3.45;;;;;;;7.60;100.00;99137.41;5011764;28;20378;-80
2021/12/25 12:25:46;;;;;;;21.20;4.00;;;;;;;7.62;100.00;99137.03;5011608;28;20042;-79
2021/12/25 12:28:13;;;;;;;24.93;3.43;;;;;;;7.61;100.00;99139.00;5026699;28;20396;-79
2021/12/25 12:30:51;;;;;;;12.32;4.15;;;;;;;7.59;100.00;99141.31;5010928;28;20042;-79
2021/12/25 12:33:23;;;;;;;33.50;5.22;;;;;;;7.60;100.00;99137.41;5010388;28;20061;-79
2021/12/25 12:35:53;;;;;;;21.90;4.05;;;;;;;7.59;100.00;99135.03;5010390;28;20038;-79
2021/12/25 12:38:26;;;;;;;14.60;4.13;;;;;;;7.57;100.00;99137.34;5010067;28;20034;-79
2021/12/25 12:41:20;;;;;;;25.92;3.83;;;;;;;7.56;100.00;99130.22;5010000;28;20038;-79
2021/12/25 12:44:11;;;;;;;14.13;3.30;;;;;;;7.56;100.00;99128.28;4993521;28;20049;-79
2021/12/25 12:46:50;;;;;;;0.00;0.00;;;;;;;7.56;100.00;99119.22;5011919;28;20053;-79
2021/12/25 12:49:19;;;;;;;0.00;0.00;;;;;;;7.57;100.00;99138.13;5029808;28;20044;-79
2021/12/25 12:52:07;;;;;;;0.68;0.68;;;;;;;7.59;100.00;99124.81;5029883;28;20045;-79
2021/12/25 12:54:45;;;;;;;0.15;0.15;;;;;;;7.59;100.00;99135.81;5030859;28;20050;-79
2021/12/25 12:57:38;;;;;;;0.00;0.00;;;;;;;7.61;100.00;99121.66;5031003;28;20129;-79
2021/12/25 13:00:11;;;;;;;0.10;0.10;;;;;;;7.59;100.00;99111.03;5030426;28;20053;-79
2021/12/25 13:02:44;;;;;;;1.75;0.70;;;;;;;7.58;100.00;99123.19;5030766;28;20423;-79
2021/12/25 13:05:12;;;;;;;0.00;0.00;;;;;;;7.59;100.00;99107.47;5029146;28;20092;-79